Sveti Ilia & Wanja — LZMM — position and weather

sailwx.info

Track history (hours):
 
Tides and Currents Weather Stations Pressure Air Temp Water Temp Dewpoint Dewpoint Depression Visibility Wind Speed Wind Dir Waves Ship Positions

Sveti Ilia & Wanja

Last reported at 2018-Apr-21 17:30 UTC. Time now 2018-Apr-21 17:34 UTC.
Position N 44°18' E 022°34'.

Length 90 m; draft 0.3 m.

Type: Ship. MMSI: 207261313.

Date/timePositionNaut miles runAvg speedWind from/ knotsBaromVisibWave heightAir tempDewpointWater temp
2018-Apr-21 17:30N 44°18' E 022°34'0 0.0
2018-Apr-21 17:01N 44°18' E 022°34'2 3.2
2018-Apr-21 16:30N 44°19' E 022°33'3 5.5
2018-Apr-21 16:01N 44°22' E 022°31'3 5.5
2018-Apr-21 15:30N 44°25' E 022°30'3 5.3
2018-Apr-21 15:01N 44°27' E 022°28'2 4.0
2018-Apr-21 14:30N 44°29' E 022°29'2 5.1
2018-Apr-21 14:01N 44°29' E 022°32'3 5.3
2018-Apr-21 13:31N 44°31' E 022°34'3 5.0
2018-Apr-21 13:01N 44°33' E 022°36'3 5.6
2018-Apr-21 12:31N 44°32' E 022°40'3 5.7
2018-Apr-21 12:00N 44°31' E 022°44'3 5.2
2018-Apr-21 11:30N 44°34' E 022°45'3 6.1
2018-Apr-21 11:00N 44°36' E 022°43'3 5.8
2018-Apr-21 10:30N 44°37' E 022°39'3 6.3
2018-Apr-21 10:00N 44°38' E 022°34'3 5.6
2018-Apr-21 09:30N 44°40' E 022°32'0 0.1
2018-Apr-21 09:00N 44°40' E 022°32'0 0.4
2018-Apr-21 08:30N 44°40' E 022°31'0 0.0
2018-Apr-21 08:00N 44°40' E 022°31'0 0.0
2018-Apr-21 07:30N 44°40' E 022°31'1 2.3
2018-Apr-21 07:00N 44°41' E 022°30'3 5.3
2018-Apr-21 06:30N 44°43' E 022°28'3 4.8
2018-Apr-21 05:59N 44°42' E 022°24'2 4.8
2018-Apr-21 05:30N 44°40' E 022°22'3 5.1
2018-Apr-21 04:58N 44°39' E 022°18'6 5.5
2018-Apr-21 03:52N 44°34' E 022°14'1 3.6
2018-Apr-21 03:29N 44°33' E 022°13'0 0.5
2018-Apr-21 03:01N 44°33' E 022°13'0 0.0
2018-Apr-21 02:31N 44°33' E 022°13'0 0.0
2018-Apr-21 02:01N 44°33' E 022°13'0 0.0
2018-Apr-21 01:31N 44°33' E 022°13'0 0.0
2018-Apr-21 01:01N 44°33' E 022°13'0 0.0
2018-Apr-21 00:30N 44°33' E 022°13'0 0.0
2018-Apr-21 00:01N 44°33' E 022°13'0 0.0
2018-Apr-20 23:31N 44°33' E 022°13'0 0.0
2018-Apr-20 23:00N 44°33' E 022°13'0 0.0
2018-Apr-20 22:31N 44°33' E 022°13'0 0.0
2018-Apr-20 22:01N 44°33' E 022°13'0 0.0
2018-Apr-20 21:31N 44°33' E 022°13'0 0.0
2018-Apr-20 21:00N 44°33' E 022°13'0 0.0
2018-Apr-20 20:31N 44°33' E 022°13'0 0.0
2018-Apr-20 20:00N 44°33' E 022°13'0 0.0
2018-Apr-20 19:31N 44°33' E 022°13'0 0.0
2018-Apr-20 19:01N 44°33' E 022°13'0 0.0
2018-Apr-20 18:31N 44°33' E 022°13'0 0.0
2018-Apr-20 18:01N 44°33' E 022°13'3 2.8
2018-Apr-20 17:06N 44°31' E 022°12'1 6.1
2018-Apr-20 17:00N 44°30' E 022°12'3 5.2
2018-Apr-20 16:31N 44°28' E 022°09'3 5.6
2018-Apr-20 16:00N 44°30' E 022°06'3 5.9
2018-Apr-20 15:31N 44°32' E 022°04'3 5.5
2018-Apr-20 15:01N 44°34' E 022°01'42 2.2
2018-Apr-19 20:15N 44°43' E 021°04'0 0.0
2018-Apr-19 20:00N 44°43' E 021°04'0 0.0
2018-Apr-19 19:30N 44°43' E 021°04'0 0.9
2018-Apr-19 19:00N 44°43' E 021°03'3 6.1
2018-Apr-19 18:31N 44°43' E 020°59'3 6.5
2018-Apr-19 18:01N 44°40' E 020°56'3 6.3
2018-Apr-19 17:31N 44°40' E 020°51'3 6.9
2018-Apr-19 17:01N 44°40' E 020°46'3 6.3
2018-Apr-19 16:30N 44°41' E 020°43'3 6.4
2018-Apr-19 16:01N 44°44' E 020°40'3 6.2
2018-Apr-19 15:30N 44°47' E 020°38'3 6.2
2018-Apr-19 15:01N 44°50' E 020°39'3 5.6
2018-Apr-19 14:31N 44°51' E 020°36'3 6.1
2018-Apr-19 14:00N 44°50' E 020°32'3 5.2
2018-Apr-19 13:30N 44°50' E 020°28'0 0.1
2018-Apr-19 13:00N 44°50' E 020°28'0 0.4
2018-Apr-19 12:30N 44°50' E 020°28'0 0.0
2018-Apr-19 12:00N 44°50' E 020°28'0 0.5
2018-Apr-19 11:30N 44°50' E 020°29'0 0.6
2018-Apr-19 11:01N 44°50' E 020°28'0 0.0
2018-Apr-19 10:30N 44°50' E 020°28'0 0.0
2018-Apr-19 10:00N 44°50' E 020°28'0 0.0
2018-Apr-19 09:30N 44°50' E 020°28'0 0.0
2018-Apr-19 09:00N 44°50' E 020°28'0 0.0
2018-Apr-19 08:30N 44°50' E 020°28'0 0.0
2018-Apr-19 08:00N 44°50' E 020°28'0 0.0
2018-Apr-19 07:31N 44°50' E 020°28'0 0.0
2018-Apr-19 07:00N 44°50' E 020°28'0 0.0
2018-Apr-19 06:30N 44°50' E 020°28'0 0.0
2018-Apr-19 06:00N 44°50' E 020°28'0 0.0
2018-Apr-19 05:30N 44°50' E 020°28'0 0.0
2018-Apr-19 05:00N 44°50' E 020°28'0 0.0
2018-Apr-19 04:30N 44°50' E 020°28'0 0.0
2018-Apr-19 04:00N 44°50' E 020°28'0 0.0
2018-Apr-19 03:30N 44°50' E 020°28'0 0.0
2018-Apr-19 03:00N 44°50' E 020°28'0 0.0
2018-Apr-19 02:30N 44°50' E 020°28'0 0.0
2018-Apr-19 02:00N 44°50' E 020°28'0 0.0
2018-Apr-19 01:30N 44°50' E 020°28'0 0.0
2018-Apr-19 01:00N 44°50' E 020°28'0 0.0
2018-Apr-19 00:30N 44°50' E 020°28'0 0.0
2018-Apr-19 00:00N 44°50' E 020°28'0 0.0
2018-Apr-18 23:30N 44°50' E 020°28'0 0.0
2018-Apr-18 23:00N 44°50' E 020°28'0 0.0
2018-Apr-18 22:30N 44°50' E 020°28'0 0.0
2018-Apr-18 22:00N 44°50' E 020°28'0 0.0
2018-Apr-18 21:30N 44°50' E 020°28'0 0.0
2018-Apr-18 21:00N 44°50' E 020°28'0 0.0
2018-Apr-18 20:30N 44°50' E 020°28'0 0.0
2018-Apr-18 20:00N 44°50' E 020°28'0 0.0
2018-Apr-18 19:30N 44°50' E 020°28'0 0.0
2018-Apr-18 19:00N 44°50' E 020°28'0 0.0
2018-Apr-18 18:30N 44°50' E 020°28'0 0.0
2018-Apr-18 18:00N 44°50' E 020°28'0 0.0
2018-Apr-18 17:30N 44°50' E 020°28'0 0.0
2018-Apr-18 17:01N 44°50' E 020°28'0 0.0
2018-Apr-18 16:30N 44°50' E 020°28'0 0.0
2018-Apr-18 16:00N 44°50' E 020°28'0 0.0
2018-Apr-18 15:30N 44°50' E 020°28'0 0.0
2018-Apr-18 15:01N 44°50' E 020°28'0 0.0
2018-Apr-18 14:30N 44°50' E 020°28'0 0.0
2018-Apr-18 14:00N 44°50' E 020°28'0 0.0
2018-Apr-18 13:30N 44°50' E 020°28'0 0.0
2018-Apr-18 13:00N 44°50' E 020°28'0 0.0
2018-Apr-18 12:30N 44°50' E 020°28'0 0.0
2018-Apr-18 12:00N 44°50' E 020°28'0 0.0
2018-Apr-18 11:30N 44°50' E 020°28'0 0.0
2018-Apr-18 11:00N 44°50' E 020°28'0 0.0
2018-Apr-18 10:30N 44°50' E 020°28'0 0.0
2018-Apr-18 10:00N 44°50' E 020°28'0 0.0
2018-Apr-18 09:31N 44°50' E 020°28'0 0.0
2018-Apr-18 09:01N 44°50' E 020°28'0 0.0
2018-Apr-18 08:31N 44°50' E 020°28'0 0.2
2018-Apr-18 08:00N 44°50' E 020°28'3 5.1
2018-Apr-18 07:31N 44°51' E 020°25'3 6.1
2018-Apr-18 07:00N 44°53' E 020°22'3 6.1
2018-Apr-18 06:30N 44°55' E 020°19'3 6.3
2018-Apr-18 05:59N 44°58' E 020°17'3 5.8
2018-Apr-18 05:31N 45°00' E 020°20'3 5.3
2018-Apr-18 05:01N 45°03' E 020°21'4 6.4
2018-Apr-18 04:28N 45°05' E 020°19'3 6.0
2018-Apr-18 04:01N 45°08' E 020°17'0 0.0
2018-Apr-17 18:37N 45°08' E 020°17'0 1.8
2018-Apr-17 18:30N 45°08' E 020°17'2 4.5
2018-Apr-17 18:00N 45°10' E 020°14'3 5.6
2018-Apr-17 17:30N 45°11' E 020°11'3 5.7
2018-Apr-17 17:00N 45°10' E 020°07'3 5.8
2018-Apr-17 16:30N 45°10' E 020°03'3 5.7
2018-Apr-17 16:00N 45°11' E 019°59'3 5.6
2018-Apr-17 15:30N 45°13' E 019°56'3 5.6
2018-Apr-17 15:00N 45°15' E 019°54'2 3.7
2018-Apr-17 14:30N 45°15' E 019°52'3 5.6
2018-Apr-17 14:00N 45°13' E 019°48'3 5.8
2018-Apr-17 13:31N 45°14' E 019°44'3 5.8
2018-Apr-17 13:00N 45°13' E 019°40'9 5.0
2018-Apr-17 11:13N 45°14' E 019°27'1 6.0
2018-Apr-17 11:01N 45°14' E 019°26'3 6.3
2018-Apr-17 10:31N 45°14' E 019°21'3 6.0
2018-Apr-17 09:57N 45°14' E 019°16'3 6.6
2018-Apr-17 09:30N 45°16' E 019°13'3 6.2
2018-Apr-17 09:00N 45°17' E 019°09'3 5.6
2018-Apr-17 08:30N 45°19' E 019°06'3 5.2
2018-Apr-17 08:00N 45°21' E 019°03'3 6.0
2018-Apr-17 07:30N 45°22' E 018°59'2 4.4
2018-Apr-17 07:00N 45°24' E 018°60'2 3.9
2018-Apr-17 06:30N 45°26' E 019°01'3 5.5
2018-Apr-17 06:00N 45°28' E 018°59'2 4.1
2018-Apr-17 05:31N 45°29' E 019°02'3 5.7
2018-Apr-17 05:01N 45°30' E 019°06'3 5.1
2018-Apr-17 04:30N 45°32' E 019°04'1 1.3
2018-Apr-17 04:01N 45°32' E 019°05'0 0.6
2018-Apr-17 03:31N 45°32' E 019°05'0 0.0
2018-Apr-17 03:01N 45°32' E 019°05'0 0.0
2018-Apr-17 02:31N 45°32' E 019°05'0 0.0
2018-Apr-17 02:00N 45°32' E 019°05'0 0.0
2018-Apr-17 01:31N 45°32' E 019°05'0 0.0
2018-Apr-17 01:01N 45°32' E 019°05'0 0.0
2018-Apr-17 00:31N 45°32' E 019°05'0 0.0
2018-Apr-17 00:01N 45°32' E 019°05'0 0.0
2018-Apr-16 23:31N 45°32' E 019°05'0 0.0
2018-Apr-16 23:01N 45°32' E 019°05'0 0.0
2018-Apr-16 22:31N 45°32' E 019°05'0 0.0
2018-Apr-16 22:01N 45°32' E 019°05'0 0.0
2018-Apr-16 21:31N 45°32' E 019°05'0 0.0
2018-Apr-16 21:01N 45°32' E 019°05'0 0.0
2018-Apr-16 20:31N 45°32' E 019°05'0 0.0
2018-Apr-16 20:01N 45°32' E 019°05'0 0.0
2018-Apr-16 19:30N 45°32' E 019°05'0 0.0
2018-Apr-16 19:01N 45°32' E 019°05'0 0.0
2018-Apr-16 18:31N 45°32' E 019°05'0 0.0
2018-Apr-16 18:01N 45°32' E 019°05'0 0.0
2018-Apr-16 17:30N 45°32' E 019°05'0 0.0
2018-Apr-16 17:01N 45°32' E 019°05'0 0.0
2018-Apr-16 16:31N 45°32' E 019°05'0 0.0
2018-Apr-16 16:01N 45°32' E 019°05'0 0.0
2018-Apr-16 15:31N 45°32' E 019°05'0 0.0
2018-Apr-16 15:01N 45°32' E 019°05'0 0.0
2018-Apr-16 14:30N 45°32' E 019°05'0 0.0
2018-Apr-16 14:01N 45°32' E 019°05'0 0.0
2018-Apr-16 13:31N 45°32' E 019°05'0 0.0
2018-Apr-16 13:01N 45°32' E 019°05'0 0.0
2018-Apr-16 12:30N 45°32' E 019°05'0 0.0
2018-Apr-16 12:01N 45°32' E 019°05'0 0.0
2018-Apr-16 11:31N 45°32' E 019°05'0 0.0
2018-Apr-16 11:01N 45°32' E 019°05'0 0.0
2018-Apr-16 10:31N 45°32' E 019°05'0 0.0
2018-Apr-16 10:01N 45°32' E 019°05'0 0.0
2018-Apr-16 09:31N 45°32' E 019°05'0 0.0
2018-Apr-16 09:01N 45°32' E 019°05'0 0.0
2018-Apr-16 08:31N 45°32' E 019°05'0 0.0
2018-Apr-16 08:01N 45°32' E 019°05'0 0.0
2018-Apr-16 07:31N 45°32' E 019°05'0 0.0
2018-Apr-16 07:01N 45°32' E 019°05'0 0.0
2018-Apr-16 06:31N 45°32' E 019°05'0 0.0
2018-Apr-16 06:01N 45°32' E 019°05'0 0.0
2018-Apr-16 05:31N 45°32' E 019°05'0 0.0
2018-Apr-16 05:01N 45°32' E 019°05'0 0.0
2018-Apr-16 04:31N 45°32' E 019°05'0 0.0
2018-Apr-16 04:01N 45°32' E 019°05'0 0.0
2018-Apr-16 03:31N 45°32' E 019°05'0 0.0
2018-Apr-16 03:00N 45°32' E 019°05'0 0.0
2018-Apr-16 02:31N 45°32' E 019°05'0 0.0
2018-Apr-16 02:01N 45°32' E 019°05'0 0.0
2018-Apr-16 01:31N 45°32' E 019°05'0 0.0
2018-Apr-16 01:00N 45°32' E 019°05'0 0.0
2018-Apr-16 00:31N 45°32' E 019°05'0 0.0
2018-Apr-16 00:01N 45°32' E 019°05'0 0.0
2018-Apr-15 23:31N 45°32' E 019°05'0 0.0
2018-Apr-15 23:01N 45°32' E 019°05'0 0.0
2018-Apr-15 22:31N 45°32' E 019°05'0 0.0
2018-Apr-15 22:01N 45°32' E 019°05'0 0.0
2018-Apr-15 21:31N 45°32' E 019°05'0 0.0
2018-Apr-15 21:01N 45°32' E 019°05'0 0.0
2018-Apr-15 20:30N 45°32' E 019°05'0 0.0
2018-Apr-15 20:01N 45°32' E 019°05'0 0.0
2018-Apr-15 19:30N 45°32' E 019°05'0 0.0
2018-Apr-15 19:01N 45°32' E 019°05'0 0.0
2018-Apr-15 18:31N 45°32' E 019°05'0 0.0
2018-Apr-15 18:01N 45°32' E 019°05'0 0.0
2018-Apr-15 17:31N 45°32' E 019°05'0 0.0
2018-Apr-15 17:00N 45°32' E 019°05'0 0.0
2018-Apr-15 16:31N 45°32' E 019°05'0 0.0
2018-Apr-15 16:01N 45°32' E 019°05'0 0.0
2018-Apr-15 15:31N 45°32' E 019°05'0 0.0
2018-Apr-15 15:01N 45°32' E 019°05'0 0.0
2018-Apr-15 14:31N 45°32' E 019°05'0 0.0
2018-Apr-15 14:01N 45°32' E 019°05'0 0.0
2018-Apr-15 13:30N 45°32' E 019°05'0 0.0
2018-Apr-15 13:01N 45°32' E 019°05'0 0.0
2018-Apr-15 12:31N 45°32' E 019°05'0 0.0
2018-Apr-15 12:01N 45°32' E 019°05'0 0.0
2018-Apr-15 11:30N 45°32' E 019°05'0 0.0
2018-Apr-15 11:01N 45°32' E 019°05'0 0.0
2018-Apr-15 10:31N 45°32' E 019°05'0 0.0
2018-Apr-15 10:01N 45°32' E 019°05'0 0.0
2018-Apr-15 09:31N 45°32' E 019°05'0 0.0
2018-Apr-15 09:00N 45°32' E 019°05'0 0.0
2018-Apr-15 08:31N 45°32' E 019°05'0 0.0
2018-Apr-15 08:01N 45°32' E 019°05'0 0.0
2018-Apr-15 07:31N 45°32' E 019°05'0 0.0
2018-Apr-15 07:01N 45°32' E 019°05'0 0.0
2018-Apr-15 06:31N 45°32' E 019°05'0 0.0
2018-Apr-15 06:01N 45°32' E 019°05'0 0.0
2018-Apr-15 05:31N 45°32' E 019°05'0 0.0
2018-Apr-15 05:01N 45°32' E 019°05'0 0.0
2018-Apr-15 04:31N 45°32' E 019°05'0 0.0
2018-Apr-15 04:00N 45°32' E 019°05'0 0.0
2018-Apr-15 03:31N 45°32' E 019°05'0 0.0
2018-Apr-15 03:01N 45°32' E 019°05'0 0.0
2018-Apr-15 02:31N 45°32' E 019°05'0 0.0
2018-Apr-15 02:01N 45°32' E 019°05'0 0.0
2018-Apr-15 01:31N 45°32' E 019°05'0 0.0
2018-Apr-15 01:00N 45°32' E 019°05'0 0.0
2018-Apr-15 00:31N 45°32' E 019°05'0 0.0
2018-Apr-15 00:01N 45°32' E 019°05'0 0.0
2018-Apr-14 23:31N 45°32' E 019°05'0 0.0
2018-Apr-14 23:01N 45°32' E 019°05'0 0.0
2018-Apr-14 22:31N 45°32' E 019°05'0 0.0
2018-Apr-14 22:01N 45°32' E 019°05'0 0.0
2018-Apr-14 21:31N 45°32' E 019°05'0 0.0
2018-Apr-14 21:01N 45°32' E 019°05'0 0.0
2018-Apr-14 20:31N 45°32' E 019°05'0 0.0
2018-Apr-14 20:01N 45°32' E 019°05'0 0.0
2018-Apr-14 19:31N 45°32' E 019°05'0 0.0
2018-Apr-14 19:00N 45°32' E 019°05'0 0.0
2018-Apr-14 18:31N 45°32' E 019°05'0 0.0
2018-Apr-14 18:00N 45°32' E 019°05'0 0.0
2018-Apr-14 17:31N 45°32' E 019°05'0 0.0
2018-Apr-14 17:00N 45°32' E 019°05'0 0.0
2018-Apr-14 16:31N 45°32' E 019°05'0 0.0
2018-Apr-14 16:01N 45°32' E 019°05'0 0.2
2018-Apr-14 15:31N 45°32' E 019°05'0 0.1
2018-Apr-14 15:01N 45°32' E 019°05'0 0.0
2018-Apr-14 14:30N 45°32' E 019°05'0 0.0
2018-Apr-14 14:01N 45°32' E 019°05'0 0.0
2018-Apr-14 13:31N 45°32' E 019°05'0 0.0
2018-Apr-14 13:01N 45°32' E 019°05'0 0.2
2018-Apr-14 12:31N 45°32' E 019°05'0 0.0
2018-Apr-14 12:01N 45°32' E 019°05'0 0.0
2018-Apr-14 11:31N 45°32' E 019°05'0 0.0
2018-Apr-14 11:01N 45°32' E 019°05'0 0.0
2018-Apr-14 10:31N 45°32' E 019°05'0 0.0
2018-Apr-14 10:01N 45°32' E 019°05'0 0.0
2018-Apr-14 09:30N 45°32' E 019°05'0 0.0
2018-Apr-14 09:01N 45°32' E 019°05'0 0.0
2018-Apr-14 08:31N 45°32' E 019°05'0 0.0
2018-Apr-14 08:01N 45°32' E 019°05'0 0.0
2018-Apr-14 07:31N 45°32' E 019°05'0 0.0
2018-Apr-14 07:01N 45°32' E 019°05'0 0.0
2018-Apr-14 06:31N 45°32' E 019°05'0 0.0
2018-Apr-14 06:01N 45°32' E 019°05'0 0.0
2018-Apr-14 05:31N 45°32' E 019°05'0 0.0
2018-Apr-14 05:01N 45°32' E 019°05'0 0.0
2018-Apr-14 04:31N 45°32' E 019°05'0 0.0
2018-Apr-14 04:01N 45°32' E 019°05'0 0.0
2018-Apr-14 03:31N 45°32' E 019°05'0 0.0
2018-Apr-14 03:01N 45°32' E 019°05'0 0.0
2018-Apr-14 02:31N 45°32' E 019°05'0 0.0
2018-Apr-14 02:01N 45°32' E 019°05'0 0.0
2018-Apr-14 01:31N 45°32' E 019°05'0 0.0
2018-Apr-14 01:01N 45°32' E 019°05'0 0.0
2018-Apr-14 00:31N 45°32' E 019°05'0 0.0
2018-Apr-14 00:01N 45°32' E 019°05'0 0.0
2018-Apr-13 23:30N 45°32' E 019°05'0 0.0
2018-Apr-13 23:01N 45°32' E 019°05'0 0.0
2018-Apr-13 22:31N 45°32' E 019°05'0 0.2
2018-Apr-13 22:01N 45°32' E 019°05'0 0.0
2018-Apr-13 21:31N 45°32' E 019°05'0 0.2
2018-Apr-13 21:01N 45°32' E 019°05'0 0.0
2018-Apr-13 20:31N 45°32' E 019°05'0 0.0
2018-Apr-13 20:01N 45°32' E 019°05'0 0.0
2018-Apr-13 19:30N 45°32' E 019°05'0 0.0
2018-Apr-13 19:01N 45°32' E 019°05'0 0.0
2018-Apr-13 18:31N 45°32' E 019°05'0 0.0
2018-Apr-13 18:01N 45°32' E 019°05'0 0.1
2018-Apr-13 17:30N 45°32' E 019°05'0 0.0
2018-Apr-13 17:01N 45°32' E 019°05'0 0.0
2018-Apr-13 16:30N 45°32' E 019°05'0 0.0
2018-Apr-13 16:01N 45°32' E 019°05'0 0.0
2018-Apr-13 15:30N 45°32' E 019°05'0 0.0
2018-Apr-13 15:01N 45°32' E 019°05'0 0.0
2018-Apr-13 14:31N 45°32' E 019°05'0 0.0
2018-Apr-13 14:01N 45°32' E 019°05'0 0.0
2018-Apr-13 13:31N 45°32' E 019°05'0 0.0
2018-Apr-13 13:01N 45°32' E 019°05'0 0.0
2018-Apr-13 12:31N 45°32' E 019°05'0 0.0
2018-Apr-13 12:01N 45°32' E 019°05'0 0.0
2018-Apr-13 11:31N 45°32' E 019°05'0 0.0
2018-Apr-13 10:00N 45°32' E 019°05'0 0.0
2018-Apr-13 09:30N 45°32' E 019°05'0 0.2
2018-Apr-13 09:01N 45°32' E 019°05'2 4.9
2018-Apr-13 08:31N 45°33' E 019°02'3 5.1
2018-Apr-13 08:01N 45°32' E 018°58'3 6.9
2018-Apr-13 07:31N 45°34' E 018°54'3 5.8
2018-Apr-13 07:01N 45°36' E 018°54'3 6.0
2018-Apr-13 06:30N 45°39' E 018°57'2 4.8
2018-Apr-13 06:01N 45°41' E 018°56'4 7.0
2018-Apr-13 05:31N 45°44' E 018°54'3 6.6
2018-Apr-13 04:59N 45°47' E 018°51'3 5.9
2018-Apr-13 04:30N 45°50' E 018°51'0 0.2
2018-Apr-13 04:00N 45°50' E 018°51'0 0.0
2018-Apr-13 03:30N 45°50' E 018°51'0 0.0
2018-Apr-13 03:00N 45°50' E 018°51'0 0.0
2018-Apr-13 02:30N 45°50' E 018°51'0 0.0
2018-Apr-13 02:00N 45°50' E 018°51'0 0.0
2018-Apr-13 01:30N 45°50' E 018°51'0 0.0
2018-Apr-13 01:00N 45°50' E 018°51'0 0.0
2018-Apr-13 00:30N 45°50' E 018°51'0 0.0
2018-Apr-12 23:59N 45°50' E 018°51'0 0.0
2018-Apr-12 23:30N 45°50' E 018°51'0 0.0
2018-Apr-12 23:00N 45°50' E 018°51'0 0.0
2018-Apr-12 22:30N 45°50' E 018°51'0 0.0
2018-Apr-12 21:58N 45°50' E 018°51'0 0.0
2018-Apr-12 21:30N 45°50' E 018°51'0 0.0
2018-Apr-12 20:58N 45°50' E 018°51'0 0.0
2018-Apr-12 20:30N 45°50' E 018°51'0 0.0
2018-Apr-12 19:59N 45°50' E 018°51'0 0.1
2018-Apr-12 19:30N 45°50' E 018°51'1 2.5
2018-Apr-12 19:00N 45°51' E 018°51'3 6.2
2018-Apr-12 18:30N 45°54' E 018°49'  
Track history (hours):
 
Tides and Currents Weather Stations Pressure Air Temp Water Temp Dewpoint Dewpoint Depression Visibility Wind Speed Wind Dir Waves Ship Positions

Sveti Ilia & Wanja

Last reported at 2018-Apr-21 17:30 UTC. Time now 2018-Apr-21 17:34 UTC.
Position N 44°18' E 022°34'.

Length 90 m; draft 0.3 m.

Type: Ship. MMSI: 207261313.

Date/timePositionNaut miles runAvg speedWind from/ knotsBaromVisibWave heightAir tempDewpointWater temp
2018-Apr-21 17:30N 44°18' E 022°34'0 0.0
2018-Apr-21 17:01N 44°18' E 022°34'2 3.2
2018-Apr-21 16:30N 44°19' E 022°33'3 5.5
2018-Apr-21 16:01N 44°22' E 022°31'3 5.5
2018-Apr-21 15:30N 44°25' E 022°30'3 5.3
2018-Apr-21 15:01N 44°27' E 022°28'2 4.0
2018-Apr-21 14:30N 44°29' E 022°29'2 5.1
2018-Apr-21 14:01N 44°29' E 022°32'3 5.3
2018-Apr-21 13:31N 44°31' E 022°34'3 5.0
2018-Apr-21 13:01N 44°33' E 022°36'3 5.6
2018-Apr-21 12:31N 44°32' E 022°40'3 5.7
2018-Apr-21 12:00N 44°31' E 022°44'3 5.2
2018-Apr-21 11:30N 44°34' E 022°45'3 6.1
2018-Apr-21 11:00N 44°36' E 022°43'3 5.8
2018-Apr-21 10:30N 44°37' E 022°39'3 6.3
2018-Apr-21 10:00N 44°38' E 022°34'3 5.6
2018-Apr-21 09:30N 44°40' E 022°32'0 0.1
2018-Apr-21 09:00N 44°40' E 022°32'0 0.4
2018-Apr-21 08:30N 44°40' E 022°31'0 0.0
2018-Apr-21 08:00N 44°40' E 022°31'0 0.0
2018-Apr-21 07:30N 44°40' E 022°31'1 2.3
2018-Apr-21 07:00N 44°41' E 022°30'3 5.3
2018-Apr-21 06:30N 44°43' E 022°28'3 4.8
2018-Apr-21 05:59N 44°42' E 022°24'2 4.8
2018-Apr-21 05:30N 44°40' E 022°22'3 5.1
2018-Apr-21 04:58N 44°39' E 022°18'6 5.5
2018-Apr-21 03:52N 44°34' E 022°14'1 3.6
2018-Apr-21 03:29N 44°33' E 022°13'0 0.5
2018-Apr-21 03:01N 44°33' E 022°13'0 0.0
2018-Apr-21 02:31N 44°33' E 022°13'0 0.0
2018-Apr-21 02:01N 44°33' E 022°13'0 0.0
2018-Apr-21 01:31N 44°33' E 022°13'0 0.0
2018-Apr-21 01:01N 44°33' E 022°13'0 0.0
2018-Apr-21 00:30N 44°33' E 022°13'0 0.0
2018-Apr-21 00:01N 44°33' E 022°13'0 0.0
2018-Apr-20 23:31N 44°33' E 022°13'0 0.0
2018-Apr-20 23:00N 44°33' E 022°13'0 0.0
2018-Apr-20 22:31N 44°33' E 022°13'0 0.0
2018-Apr-20 22:01N 44°33' E 022°13'0 0.0
2018-Apr-20 21:31N 44°33' E 022°13'0 0.0
2018-Apr-20 21:00N 44°33' E 022°13'0 0.0
2018-Apr-20 20:31N 44°33' E 022°13'0 0.0
2018-Apr-20 20:00N 44°33' E 022°13'0 0.0
2018-Apr-20 19:31N 44°33' E 022°13'0 0.0
2018-Apr-20 19:01N 44°33' E 022°13'0 0.0
2018-Apr-20 18:31N 44°33' E 022°13'0 0.0
2018-Apr-20 18:01N 44°33' E 022°13'3 2.8
2018-Apr-20 17:06N 44°31' E 022°12'1 6.1
2018-Apr-20 17:00N 44°30' E 022°12'3 5.2
2018-Apr-20 16:31N 44°28' E 022°09'3 5.6
2018-Apr-20 16:00N 44°30' E 022°06'3 5.9
2018-Apr-20 15:31N 44°32' E 022°04'3 5.5
2018-Apr-20 15:01N 44°34' E 022°01'42 2.2
2018-Apr-19 20:15N 44°43' E 021°04'0 0.0
2018-Apr-19 20:00N 44°43' E 021°04'0 0.0
2018-Apr-19 19:30N 44°43' E 021°04'0 0.9
2018-Apr-19 19:00N 44°43' E 021°03'3 6.1
2018-Apr-19 18:31N 44°43' E 020°59'3 6.5
2018-Apr-19 18:01N 44°40' E 020°56'3 6.3
2018-Apr-19 17:31N 44°40' E 020°51'3 6.9
2018-Apr-19 17:01N 44°40' E 020°46'3 6.3
2018-Apr-19 16:30N 44°41' E 020°43'3 6.4
2018-Apr-19 16:01N 44°44' E 020°40'3 6.2
2018-Apr-19 15:30N 44°47' E 020°38'3 6.2
2018-Apr-19 15:01N 44°50' E 020°39'3 5.6
2018-Apr-19 14:31N 44°51' E 020°36'3 6.1
2018-Apr-19 14:00N 44°50' E 020°32'3 5.2
2018-Apr-19 13:30N 44°50' E 020°28'0 0.1
2018-Apr-19 13:00N 44°50' E 020°28'0 0.4
2018-Apr-19 12:30N 44°50' E 020°28'0 0.0
2018-Apr-19 12:00N 44°50' E 020°28'0 0.5
2018-Apr-19 11:30N 44°50' E 020°29'0 0.6
2018-Apr-19 11:01N 44°50' E 020°28'0 0.0
2018-Apr-19 10:30N 44°50' E 020°28'0 0.0
2018-Apr-19 10:00N 44°50' E 020°28'0 0.0
2018-Apr-19 09:30N 44°50' E 020°28'0 0.0
2018-Apr-19 09:00N 44°50' E 020°28'0 0.0
2018-Apr-19 08:30N 44°50' E 020°28'0 0.0
2018-Apr-19 08:00N 44°50' E 020°28'0 0.0
2018-Apr-19 07:31N 44°50' E 020°28'0 0.0
2018-Apr-19 07:00N 44°50' E 020°28'0 0.0
2018-Apr-19 06:30N 44°50' E 020°28'0 0.0
2018-Apr-19 06:00N 44°50' E 020°28'0 0.0
2018-Apr-19 05:30N 44°50' E 020°28'0 0.0
2018-Apr-19 05:00N 44°50' E 020°28'0 0.0
2018-Apr-19 04:30N 44°50' E 020°28'0 0.0
2018-Apr-19 04:00N 44°50' E 020°28'0 0.0
2018-Apr-19 03:30N 44°50' E 020°28'0 0.0
2018-Apr-19 03:00N 44°50' E 020°28'0 0.0
2018-Apr-19 02:30N 44°50' E 020°28'0 0.0
2018-Apr-19 02:00N 44°50' E 020°28'0 0.0
2018-Apr-19 01:30N 44°50' E 020°28'0 0.0
2018-Apr-19 01:00N 44°50' E 020°28'0 0.0
2018-Apr-19 00:30N 44°50' E 020°28'0 0.0
2018-Apr-19 00:00N 44°50' E 020°28'0 0.0
2018-Apr-18 23:30N 44°50' E 020°28'0 0.0
2018-Apr-18 23:00N 44°50' E 020°28'0 0.0
2018-Apr-18 22:30N 44°50' E 020°28'0 0.0
2018-Apr-18 22:00N 44°50' E 020°28'0 0.0
2018-Apr-18 21:30N 44°50' E 020°28'0 0.0
2018-Apr-18 21:00N 44°50' E 020°28'0 0.0
2018-Apr-18 20:30N 44°50' E 020°28'0 0.0
2018-Apr-18 20:00N 44°50' E 020°28'0 0.0
2018-Apr-18 19:30N 44°50' E 020°28'0 0.0
2018-Apr-18 19:00N 44°50' E 020°28'0 0.0
2018-Apr-18 18:30N 44°50' E 020°28'0 0.0
2018-Apr-18 18:00N 44°50' E 020°28'0 0.0
2018-Apr-18 17:30N 44°50' E 020°28'0 0.0
2018-Apr-18 17:01N 44°50' E 020°28'0 0.0
2018-Apr-18 16:30N 44°50' E 020°28'0 0.0
2018-Apr-18 16:00N 44°50' E 020°28'0 0.0
2018-Apr-18 15:30N 44°50' E 020°28'0 0.0
2018-Apr-18 15:01N 44°50' E 020°28'0 0.0
2018-Apr-18 14:30N 44°50' E 020°28'0 0.0
2018-Apr-18 14:00N 44°50' E 020°28'0 0.0
2018-Apr-18 13:30N 44°50' E 020°28'0 0.0
2018-Apr-18 13:00N 44°50' E 020°28'0 0.0
2018-Apr-18 12:30N 44°50' E 020°28'0 0.0
2018-Apr-18 12:00N 44°50' E 020°28'0 0.0
2018-Apr-18 11:30N 44°50' E 020°28'0 0.0
2018-Apr-18 11:00N 44°50' E 020°28'0 0.0
2018-Apr-18 10:30N 44°50' E 020°28'0 0.0
2018-Apr-18 10:00N 44°50' E 020°28'0 0.0
2018-Apr-18 09:31N 44°50' E 020°28'0 0.0
2018-Apr-18 09:01N 44°50' E 020°28'0 0.0
2018-Apr-18 08:31N 44°50' E 020°28'0 0.2
2018-Apr-18 08:00N 44°50' E 020°28'3 5.1
2018-Apr-18 07:31N 44°51' E 020°25'3 6.1
2018-Apr-18 07:00N 44°53' E 020°22'3 6.1
2018-Apr-18 06:30N 44°55' E 020°19'3 6.3
2018-Apr-18 05:59N 44°58' E 020°17'3 5.8
2018-Apr-18 05:31N 45°00' E 020°20'3 5.3
2018-Apr-18 05:01N 45°03' E 020°21'4 6.4
2018-Apr-18 04:28N 45°05' E 020°19'3 6.0
2018-Apr-18 04:01N 45°08' E 020°17'0 0.0
2018-Apr-17 18:37N 45°08' E 020°17'0 1.8
2018-Apr-17 18:30N 45°08' E 020°17'2 4.5
2018-Apr-17 18:00N 45°10' E 020°14'3 5.6
2018-Apr-17 17:30N 45°11' E 020°11'3 5.7
2018-Apr-17 17:00N 45°10' E 020°07'3 5.8
2018-Apr-17 16:30N 45°10' E 020°03'3 5.7
2018-Apr-17 16:00N 45°11' E 019°59'3 5.6
2018-Apr-17 15:30N 45°13' E 019°56'3 5.6
2018-Apr-17 15:00N 45°15' E 019°54'2 3.7
2018-Apr-17 14:30N 45°15' E 019°52'3 5.6
2018-Apr-17 14:00N 45°13' E 019°48'3 5.8
2018-Apr-17 13:31N 45°14' E 019°44'3 5.8
2018-Apr-17 13:00N 45°13' E 019°40'9 5.0
2018-Apr-17 11:13N 45°14' E 019°27'1 6.0
2018-Apr-17 11:01N 45°14' E 019°26'3 6.3
2018-Apr-17 10:31N 45°14' E 019°21'3 6.0
2018-Apr-17 09:57N 45°14' E 019°16'3 6.6
2018-Apr-17 09:30N 45°16' E 019°13'3 6.2
2018-Apr-17 09:00N 45°17' E 019°09'3 5.6
2018-Apr-17 08:30N 45°19' E 019°06'3 5.2
2018-Apr-17 08:00N 45°21' E 019°03'3 6.0
2018-Apr-17 07:30N 45°22' E 018°59'2 4.4
2018-Apr-17 07:00N 45°24' E 018°60'2 3.9
2018-Apr-17 06:30N 45°26' E 019°01'3 5.5
2018-Apr-17 06:00N 45°28' E 018°59'2 4.1
2018-Apr-17 05:31N 45°29' E 019°02'3 5.7
2018-Apr-17 05:01N 45°30' E 019°06'3 5.1
2018-Apr-17 04:30N 45°32' E 019°04'1 1.3
2018-Apr-17 04:01N 45°32' E 019°05'0 0.6
2018-Apr-17 03:31N 45°32' E 019°05'0 0.0
2018-Apr-17 03:01N 45°32' E 019°05'0 0.0
2018-Apr-17 02:31N 45°32' E 019°05'0 0.0
2018-Apr-17 02:00N 45°32' E 019°05'0 0.0
2018-Apr-17 01:31N 45°32' E 019°05'0 0.0
2018-Apr-17 01:01N 45°32' E 019°05'0 0.0
2018-Apr-17 00:31N 45°32' E 019°05'0 0.0
2018-Apr-17 00:01N 45°32' E 019°05'0 0.0
2018-Apr-16 23:31N 45°32' E 019°05'0 0.0
2018-Apr-16 23:01N 45°32' E 019°05'0 0.0
2018-Apr-16 22:31N 45°32' E 019°05'0 0.0
2018-Apr-16 22:01N 45°32' E 019°05'0 0.0
2018-Apr-16 21:31N 45°32' E 019°05'0 0.0
2018-Apr-16 21:01N 45°32' E 019°05'0 0.0
2018-Apr-16 20:31N 45°32' E 019°05'0 0.0
2018-Apr-16 20:01N 45°32' E 019°05'0 0.0
2018-Apr-16 19:30N 45°32' E 019°05'0 0.0
2018-Apr-16 19:01N 45°32' E 019°05'0 0.0
2018-Apr-16 18:31N 45°32' E 019°05'0 0.0
2018-Apr-16 18:01N 45°32' E 019°05'0 0.0
2018-Apr-16 17:30N 45°32' E 019°05'0 0.0
2018-Apr-16 17:01N 45°32' E 019°05'0 0.0
2018-Apr-16 16:31N 45°32' E 019°05'0 0.0
2018-Apr-16 16:01N 45°32' E 019°05'0 0.0
2018-Apr-16 15:31N 45°32' E 019°05'0 0.0
2018-Apr-16 15:01N 45°32' E 019°05'0 0.0
2018-Apr-16 14:30N 45°32' E 019°05'0 0.0
2018-Apr-16 14:01N 45°32' E 019°05'0 0.0
2018-Apr-16 13:31N 45°32' E 019°05'0 0.0
2018-Apr-16 13:01N 45°32' E 019°05'0 0.0
2018-Apr-16 12:30N 45°32' E 019°05'0 0.0
2018-Apr-16 12:01N 45°32' E 019°05'0 0.0
2018-Apr-16 11:31N 45°32' E 019°05'0 0.0
2018-Apr-16 11:01N 45°32' E 019°05'0 0.0
2018-Apr-16 10:31N 45°32' E 019°05'0 0.0
2018-Apr-16 10:01N 45°32' E 019°05'0 0.0
2018-Apr-16 09:31N 45°32' E 019°05'0 0.0
2018-Apr-16 09:01N 45°32' E 019°05'0 0.0
2018-Apr-16 08:31N 45°32' E 019°05'0 0.0
2018-Apr-16 08:01N 45°32' E 019°05'0 0.0
2018-Apr-16 07:31N 45°32' E 019°05'0 0.0
2018-Apr-16 07:01N 45°32' E 019°05'0 0.0
2018-Apr-16 06:31N 45°32' E 019°05'0 0.0
2018-Apr-16 06:01N 45°32' E 019°05'0 0.0
2018-Apr-16 05:31N 45°32' E 019°05'0 0.0
2018-Apr-16 05:01N 45°32' E 019°05'0 0.0
2018-Apr-16 04:31N 45°32' E 019°05'0 0.0
2018-Apr-16 04:01N 45°32' E 019°05'0 0.0
2018-Apr-16 03:31N 45°32' E 019°05'0 0.0
2018-Apr-16 03:00N 45°32' E 019°05'0 0.0
2018-Apr-16 02:31N 45°32' E 019°05'0 0.0
2018-Apr-16 02:01N 45°32' E 019°05'0 0.0
2018-Apr-16 01:31N 45°32' E 019°05'0 0.0
2018-Apr-16 01:00N 45°32' E 019°05'0 0.0
2018-Apr-16 00:31N 45°32' E 019°05'0 0.0
2018-Apr-16 00:01N 45°32' E 019°05'0 0.0
2018-Apr-15 23:31N 45°32' E 019°05'0 0.0
2018-Apr-15 23:01N 45°32' E 019°05'0 0.0
2018-Apr-15 22:31N 45°32' E 019°05'0 0.0
2018-Apr-15 22:01N 45°32' E 019°05'0 0.0
2018-Apr-15 21:31N 45°32' E 019°05'0 0.0
2018-Apr-15 21:01N 45°32' E 019°05'0 0.0
2018-Apr-15 20:30N 45°32' E 019°05'0 0.0
2018-Apr-15 20:01N 45°32' E 019°05'0 0.0
2018-Apr-15 19:30N 45°32' E 019°05'0 0.0
2018-Apr-15 19:01N 45°32' E 019°05'0 0.0
2018-Apr-15 18:31N 45°32' E 019°05'0 0.0
2018-Apr-15 18:01N 45°32' E 019°05'0 0.0
2018-Apr-15 17:31N 45°32' E 019°05'0 0.0
2018-Apr-15 17:00N 45°32' E 019°05'0 0.0
2018-Apr-15 16:31N 45°32' E 019°05'0 0.0
2018-Apr-15 16:01N 45°32' E 019°05'0 0.0
2018-Apr-15 15:31N 45°32' E 019°05'0 0.0
2018-Apr-15 15:01N 45°32' E 019°05'0 0.0
2018-Apr-15 14:31N 45°32' E 019°05'0 0.0
2018-Apr-15 14:01N 45°32' E 019°05'0 0.0
2018-Apr-15 13:30N 45°32' E 019°05'0 0.0
2018-Apr-15 13:01N 45°32' E 019°05'0 0.0
2018-Apr-15 12:31N 45°32' E 019°05'0 0.0
2018-Apr-15 12:01N 45°32' E 019°05'0 0.0
2018-Apr-15 11:30N 45°32' E 019°05'0 0.0
2018-Apr-15 11:01N 45°32' E 019°05'0 0.0
2018-Apr-15 10:31N 45°32' E 019°05'0 0.0
2018-Apr-15 10:01N 45°32' E 019°05'0 0.0
2018-Apr-15 09:31N 45°32' E 019°05'0 0.0
2018-Apr-15 09:00N 45°32' E 019°05'0 0.0
2018-Apr-15 08:31N 45°32' E 019°05'0 0.0
2018-Apr-15 08:01N 45°32' E 019°05'0 0.0
2018-Apr-15 07:31N 45°32' E 019°05'0 0.0
2018-Apr-15 07:01N 45°32' E 019°05'0 0.0
2018-Apr-15 06:31N 45°32' E 019°05'0 0.0
2018-Apr-15 06:01N 45°32' E 019°05'0 0.0
2018-Apr-15 05:31N 45°32' E 019°05'0 0.0
2018-Apr-15 05:01N 45°32' E 019°05'0 0.0
2018-Apr-15 04:31N 45°32' E 019°05'0 0.0
2018-Apr-15 04:00N 45°32' E 019°05'0 0.0
2018-Apr-15 03:31N 45°32' E 019°05'0 0.0
2018-Apr-15 03:01N 45°32' E 019°05'0 0.0
2018-Apr-15 02:31N 45°32' E 019°05'0 0.0
2018-Apr-15 02:01N 45°32' E 019°05'0 0.0
2018-Apr-15 01:31N 45°32' E 019°05'0 0.0
2018-Apr-15 01:00N 45°32' E 019°05'0 0.0
2018-Apr-15 00:31N 45°32' E 019°05'0 0.0
2018-Apr-15 00:01N 45°32' E 019°05'0 0.0
2018-Apr-14 23:31N 45°32' E 019°05'0 0.0
2018-Apr-14 23:01N 45°32' E 019°05'0 0.0
2018-Apr-14 22:31N 45°32' E 019°05'0 0.0
2018-Apr-14 22:01N 45°32' E 019°05'0 0.0
2018-Apr-14 21:31N 45°32' E 019°05'0 0.0
2018-Apr-14 21:01N 45°32' E 019°05'0 0.0
2018-Apr-14 20:31N 45°32' E 019°05'0 0.0
2018-Apr-14 20:01N 45°32' E 019°05'0 0.0
2018-Apr-14 19:31N 45°32' E 019°05'0 0.0
2018-Apr-14 19:00N 45°32' E 019°05'0 0.0
2018-Apr-14 18:31N 45°32' E 019°05'0 0.0
2018-Apr-14 18:00N 45°32' E 019°05'0 0.0
2018-Apr-14 17:31N 45°32' E 019°05'0 0.0
2018-Apr-14 17:00N 45°32' E 019°05'0 0.0
2018-Apr-14 16:31N 45°32' E 019°05'0 0.0
2018-Apr-14 16:01N 45°32' E 019°05'0 0.2
2018-Apr-14 15:31N 45°32' E 019°05'0 0.1
2018-Apr-14 15:01N 45°32' E 019°05'0 0.0
2018-Apr-14 14:30N 45°32' E 019°05'0 0.0
2018-Apr-14 14:01N 45°32' E 019°05'0 0.0
2018-Apr-14 13:31N 45°32' E 019°05'0 0.0
2018-Apr-14 13:01N 45°32' E 019°05'0 0.2
2018-Apr-14 12:31N 45°32' E 019°05'0 0.0
2018-Apr-14 12:01N 45°32' E 019°05'0 0.0
2018-Apr-14 11:31N 45°32' E 019°05'0 0.0
2018-Apr-14 11:01N 45°32' E 019°05'0 0.0
2018-Apr-14 10:31N 45°32' E 019°05'0 0.0
2018-Apr-14 10:01N 45°32' E 019°05'0 0.0
2018-Apr-14 09:30N 45°32' E 019°05'0 0.0
2018-Apr-14 09:01N 45°32' E 019°05'0 0.0
2018-Apr-14 08:31N 45°32' E 019°05'0 0.0
2018-Apr-14 08:01N 45°32' E 019°05'0 0.0
2018-Apr-14 07:31N 45°32' E 019°05'0 0.0
2018-Apr-14 07:01N 45°32' E 019°05'0 0.0
2018-Apr-14 06:31N 45°32' E 019°05'0 0.0
2018-Apr-14 06:01N 45°32' E 019°05'0 0.0
2018-Apr-14 05:31N 45°32' E 019°05'0 0.0
2018-Apr-14 05:01N 45°32' E 019°05'0 0.0
2018-Apr-14 04:31N 45°32' E 019°05'0 0.0
2018-Apr-14 04:01N 45°32' E 019°05'0 0.0
2018-Apr-14 03:31N 45°32' E 019°05'0 0.0
2018-Apr-14 03:01N 45°32' E 019°05'0 0.0
2018-Apr-14 02:31N 45°32' E 019°05'0 0.0
2018-Apr-14 02:01N 45°32' E 019°05'0 0.0
2018-Apr-14 01:31N 45°32' E 019°05'0 0.0
2018-Apr-14 01:01N 45°32' E 019°05'0 0.0
2018-Apr-14 00:31N 45°32' E 019°05'0 0.0
2018-Apr-14 00:01N 45°32' E 019°05'0 0.0
2018-Apr-13 23:30N 45°32' E 019°05'0 0.0
2018-Apr-13 23:01N 45°32' E 019°05'0 0.0
2018-Apr-13 22:31N 45°32' E 019°05'0 0.2
2018-Apr-13 22:01N 45°32' E 019°05'0 0.0
2018-Apr-13 21:31N 45°32' E 019°05'0 0.2
2018-Apr-13 21:01N 45°32' E 019°05'0 0.0
2018-Apr-13 20:31N 45°32' E 019°05'0 0.0
2018-Apr-13 20:01N 45°32' E 019°05'0 0.0
2018-Apr-13 19:30N 45°32' E 019°05'0 0.0
2018-Apr-13 19:01N 45°32' E 019°05'0 0.0
2018-Apr-13 18:31N 45°32' E 019°05'0 0.0
2018-Apr-13 18:01N 45°32' E 019°05'0 0.1
2018-Apr-13 17:30N 45°32' E 019°05'0 0.0
2018-Apr-13 17:01N 45°32' E 019°05'0 0.0
2018-Apr-13 16:30N 45°32' E 019°05'0 0.0
2018-Apr-13 16:01N 45°32' E 019°05'0 0.0
2018-Apr-13 15:30N 45°32' E 019°05'0 0.0
2018-Apr-13 15:01N 45°32' E 019°05'0 0.0
2018-Apr-13 14:31N 45°32' E 019°05'0 0.0
2018-Apr-13 14:01N 45°32' E 019°05'0 0.0
2018-Apr-13 13:31N 45°32' E 019°05'0 0.0
2018-Apr-13 13:01N 45°32' E 019°05'0 0.0
2018-Apr-13 12:31N 45°32' E 019°05'0 0.0
2018-Apr-13 12:01N 45°32' E 019°05'0 0.0
2018-Apr-13 11:31N 45°32' E 019°05'0 0.0
2018-Apr-13 10:00N 45°32' E 019°05'0 0.0
2018-Apr-13 09:30N 45°32' E 019°05'0 0.2
2018-Apr-13 09:01N 45°32' E 019°05'2 4.9
2018-Apr-13 08:31N 45°33' E 019°02'3 5.1
2018-Apr-13 08:01N 45°32' E 018°58'3 6.9
2018-Apr-13 07:31N 45°34' E 018°54'3 5.8
2018-Apr-13 07:01N 45°36' E 018°54'3 6.0
2018-Apr-13 06:30N 45°39' E 018°57'2 4.8
2018-Apr-13 06:01N 45°41' E 018°56'4 7.0
2018-Apr-13 05:31N 45°44' E 018°54'3 6.6
2018-Apr-13 04:59N 45°47' E 018°51'3 5.9
2018-Apr-13 04:30N 45°50' E 018°51'0 0.2
2018-Apr-13 04:00N 45°50' E 018°51'0 0.0
2018-Apr-13 03:30N 45°50' E 018°51'0 0.0
2018-Apr-13 03:00N 45°50' E 018°51'0 0.0
2018-Apr-13 02:30N 45°50' E 018°51'0 0.0
2018-Apr-13 02:00N 45°50' E 018°51'0 0.0
2018-Apr-13 01:30N 45°50' E 018°51'0 0.0
2018-Apr-13 01:00N 45°50' E 018°51'0 0.0
2018-Apr-13 00:30N 45°50' E 018°51'0 0.0
2018-Apr-12 23:59N 45°50' E 018°51'0 0.0
2018-Apr-12 23:30N 45°50' E 018°51'0 0.0
2018-Apr-12 23:00N 45°50' E 018°51'0 0.0
2018-Apr-12 22:30N 45°50' E 018°51'0 0.0
2018-Apr-12 21:58N 45°50' E 018°51'0 0.0
2018-Apr-12 21:30N 45°50' E 018°51'0 0.0
2018-Apr-12 20:58N 45°50' E 018°51'0 0.0
2018-Apr-12 20:30N 45°50' E 018°51'0 0.0
2018-Apr-12 19:59N 45°50' E 018°51'0 0.1
2018-Apr-12 19:30N 45°50' E 018°51'1 2.5
2018-Apr-12 19:00N 45°51' E 018°51'3 6.2
2018-Apr-12 18:30N 45°54' E 018°49'  

Dump ship's entire track history